sensor_id;sensor_type;location;lat;lon;timestamp;P1;durP1;ratioP1;P2;durP2;ratioP2
11338;SDS011;5724;42.684;23.252;2024-03-23T00:53:38;16.77;;;12.97;;
11338;SDS011;5724;42.684;23.252;2024-03-23T00:56:22;17.43;;;12.60;;
11338;SDS011;5724;42.684;23.252;2024-03-23T00:59:07;19.93;;;12.50;;
11338;SDS011;5724;42.684;23.252;2024-03-23T01:01:51;15.73;;;13.03;;
11338;SDS011;5724;42.684;23.252;2024-03-23T01:04:35;14.83;;;12.73;;
11338;SDS011;5724;42.684;23.252;2024-03-23T01:07:19;16.37;;;12.83;;
11338;SDS011;5724;42.684;23.252;2024-03-23T01:10:03;27.07;;;12.80;;
11338;SDS011;5724;42.684;23.252;2024-03-23T01:12:47;24.47;;;13.57;;
11338;SDS011;5724;42.684;23.252;2024-03-23T01:15:31;16.70;;;13.03;;
11338;SDS011;5724;42.684;23.252;2024-03-23T01:18:16;15.83;;;13.17;;
11338;SDS011;5724;42.684;23.252;2024-03-23T01:21:00;18.10;;;13.47;;
11338;SDS011;5724;42.684;23.252;2024-03-23T01:23:44;19.03;;;12.97;;
11338;SDS011;5724;42.684;23.252;2024-03-23T01:26:28;29.30;;;17.07;;
11338;SDS011;5724;42.684;23.252;2024-03-23T01:29:12;24.03;;;16.97;;
11338;SDS011;5724;42.684;23.252;2024-03-23T01:31:56;19.83;;;14.97;;
11338;SDS011;5724;42.684;23.252;2024-03-23T01:34:40;21.10;;;15.40;;
11338;SDS011;5724;42.684;23.252;2024-03-23T01:37:23;17.50;;;14.87;;
11338;SDS011;5724;42.684;23.252;2024-03-23T01:40:08;19.93;;;13.40;;
11338;SDS011;5724;42.684;23.252;2024-03-23T01:42:59;14.37;;;10.70;;
11338;SDS011;5724;42.684;23.252;2024-03-23T01:45:47;13.30;;;11.07;;
11338;SDS011;5724;42.684;23.252;2024-03-23T01:48:31;16.27;;;11.53;;
11338;SDS011;5724;42.684;23.252;2024-03-23T01:51:15;15.83;;;11.27;;
11338;SDS011;5724;42.684;23.252;2024-03-23T01:54:00;13.80;;;10.90;;
11338;SDS011;5724;42.684;23.252;2024-03-23T01:56:47;15.20;;;11.43;;
11338;SDS011;5724;42.684;23.252;2024-03-23T01:59:32;11.57;;;10.47;;
11338;SDS011;5724;42.684;23.252;2024-03-23T02:02:16;13.10;;;10.50;;
11338;SDS011;5724;42.684;23.252;2024-03-23T02:05:02;18.90;;;11.43;;
11338;SDS011;5724;42.684;23.252;2024-03-23T02:07:46;13.73;;;11.17;;
11338;SDS011;5724;42.684;23.252;2024-03-23T02:10:30;13.37;;;11.47;;
11338;SDS011;5724;42.684;23.252;2024-03-23T02:13:14;13.53;;;11.60;;
11338;SDS011;5724;42.684;23.252;2024-03-23T02:15:59;15.53;;;11.53;;
11338;SDS011;5724;42.684;23.252;2024-03-23T02:18:43;12.00;;;10.67;;
11338;SDS011;5724;42.684;23.252;2024-03-23T02:21:27;13.17;;;10.77;;
11338;SDS011;5724;42.684;23.252;2024-03-23T02:24:15;12.87;;;10.13;;
11338;SDS011;5724;42.684;23.252;2024-03-23T02:26:59;11.00;;;10.00;;
11338;SDS011;5724;42.684;23.252;2024-03-23T02:29:43;11.07;;;9.97;;
11338;SDS011;5724;42.684;23.252;2024-03-23T02:32:27;11.90;;;9.80;;
11338;SDS011;5724;42.684;23.252;2024-03-23T02:35:11;11.33;;;10.10;;
11338;SDS011;5724;42.684;23.252;2024-03-23T02:37:56;10.27;;;9.27;;
11338;SDS011;5724;42.684;23.252;2024-03-23T02:40:40;11.37;;;10.17;;
11338;SDS011;5724;42.684;23.252;2024-03-23T02:43:24;15.17;;;11.50;;
11338;SDS011;5724;42.684;23.252;2024-03-23T02:46:08;11.60;;;9.87;;
11338;SDS011;5724;42.684;23.252;2024-03-23T02:48:52;16.40;;;13.13;;
11338;SDS011;5724;42.684;23.252;2024-03-23T02:51:36;13.87;;;12.10;;
11338;SDS011;5724;42.684;23.252;2024-03-23T02:54:20;15.73;;;11.87;;
11338;SDS011;5724;42.684;23.252;2024-03-23T02:57:03;13.83;;;12.27;;
11338;SDS011;5724;42.684;23.252;2024-03-23T02:59:48;14.53;;;12.87;;
11338;SDS011;5724;42.684;23.252;2024-03-23T03:02:32;15.53;;;12.77;;
11338;SDS011;5724;42.684;23.252;2024-03-23T03:05:16;13.30;;;11.93;;
11338;SDS011;5724;42.684;23.252;2024-03-23T03:08:00;17.73;;;12.83;;
11338;SDS011;5724;42.684;23.252;2024-03-23T03:10:44;16.97;;;13.03;;
11338;SDS011;5724;42.684;23.252;2024-03-23T03:13:28;16.80;;;13.50;;
11338;SDS011;5724;42.684;23.252;2024-03-23T03:16:12;15.67;;;11.83;;
11338;SDS011;5724;42.684;23.252;2024-03-23T03:18:57;20.77;;;12.80;;
11338;SDS011;5724;42.684;23.252;2024-03-23T03:21:41;16.07;;;12.27;;
11338;SDS011;5724;42.684;23.252;2024-03-23T03:24:24;17.33;;;11.10;;
11338;SDS011;5724;42.684;23.252;2024-03-23T03:27:08;16.50;;;12.03;;
11338;SDS011;5724;42.684;23.252;2024-03-23T03:29:53;12.23;;;11.03;;
11338;SDS011;5724;42.684;23.252;2024-03-23T03:32:37;15.83;;;12.50;;
11338;SDS011;5724;42.684;23.252;2024-03-23T03:35:21;15.67;;;12.43;;
11338;SDS011;5724;42.684;23.252;2024-03-23T03:38:05;17.50;;;12.37;;
11338;SDS011;5724;42.684;23.252;2024-03-23T03:40:48;20.07;;;13.23;;
11338;SDS011;5724;42.684;23.252;2024-03-23T03:43:33;21.10;;;15.67;;
11338;SDS011;5724;42.684;23.252;2024-03-23T03:46:17;20.93;;;13.93;;
11338;SDS011;5724;42.684;23.252;2024-03-23T03:49:01;15.33;;;12.57;;
11338;SDS011;5724;42.684;23.252;2024-03-23T03:51:45;14.37;;;12.27;;
11338;SDS011;5724;42.684;23.252;2024-03-23T03:54:29;18.53;;;13.73;;
11338;SDS011;5724;42.684;23.252;2024-03-23T03:57:13;23.03;;;13.10;;
11338;SDS011;5724;42.684;23.252;2024-03-23T03:59:57;17.87;;;12.77;;
11338;SDS011;5724;42.684;23.252;2024-03-23T04:02:41;14.73;;;11.23;;
11338;SDS011;5724;42.684;23.252;2024-03-23T04:05:25;16.40;;;10.90;;
11338;SDS011;5724;42.684;23.252;2024-03-23T04:08:09;11.57;;;10.17;;
11338;SDS011;5724;42.684;23.252;2024-03-23T04:10:53;15.07;;;12.20;;
11338;SDS011;5724;42.684;23.252;2024-03-23T04:13:37;18.10;;;12.23;;
11338;SDS011;5724;42.684;23.252;2024-03-23T04:16:24;17.10;;;12.20;;
11338;SDS011;5724;42.684;23.252;2024-03-23T04:19:12;19.97;;;13.30;;
11338;SDS011;5724;42.684;23.252;2024-03-23T04:21:55;11.30;;;10.10;;
11338;SDS011;5724;42.684;23.252;2024-03-23T04:24:39;14.47;;;12.30;;
11338;SDS011;5724;42.684;23.252;2024-03-23T04:27:23;15.03;;;13.37;;
11338;SDS011;5724;42.684;23.252;2024-03-23T04:30:07;14.47;;;12.23;;
11338;SDS011;5724;42.684;23.252;2024-03-23T04:32:54;15.43;;;12.83;;
11338;SDS011;5724;42.684;23.252;2024-03-23T04:35:40;14.47;;;12.33;;
11338;SDS011;5724;42.684;23.252;2024-03-23T04:38:24;15.40;;;12.40;;
11338;SDS011;5724;42.684;23.252;2024-03-23T04:41:08;15.17;;;11.00;;
11338;SDS011;5724;42.684;23.252;2024-03-23T04:43:52;13.40;;;11.63;;
11338;SDS011;5724;42.684;23.252;2024-03-23T04:46:36;11.67;;;10.47;;
11338;SDS011;5724;42.684;23.252;2024-03-23T04:49:20;16.33;;;12.23;;
11338;SDS011;5724;42.684;23.252;2024-03-23T04:52:04;23.17;;;13.10;;
11338;SDS011;5724;42.684;23.252;2024-03-23T04:54:49;13.77;;;11.20;;
11338;SDS011;5724;42.684;23.252;2024-03-23T04:57:33;15.20;;;11.13;;
11338;SDS011;5724;42.684;23.252;2024-03-23T05:00:16;14.40;;;10.37;;
11338;SDS011;5724;42.684;23.252;2024-03-23T05:03:01;21.07;;;11.93;;
11338;SDS011;5724;42.684;23.252;2024-03-23T05:05:48;17.57;;;13.07;;
11338;SDS011;5724;42.684;23.252;2024-03-23T05:08:33;17.87;;;12.90;;
11338;SDS011;5724;42.684;23.252;2024-03-23T05:11:16;21.27;;;14.70;;
11338;SDS011;5724;42.684;23.252;2024-03-23T05:14:01;22.80;;;16.77;;
11338;SDS011;5724;42.684;23.252;2024-03-23T05:16:46;18.70;;;14.37;;
11338;SDS011;5724;42.684;23.252;2024-03-23T05:19:30;20.97;;;13.17;;
11338;SDS011;5724;42.684;23.252;2024-03-23T05:22:14;19.37;;;12.67;;
11338;SDS011;5724;42.684;23.252;2024-03-23T05:24:58;17.00;;;11.77;;
11338;SDS011;5724;42.684;23.252;2024-03-23T05:27:42;12.80;;;11.33;;
11338;SDS011;5724;42.684;23.252;2024-03-23T05:30:27;15.03;;;11.07;;
11338;SDS011;5724;42.684;23.252;2024-03-23T05:33:11;12.47;;;11.27;;
11338;SDS011;5724;42.684;23.252;2024-03-23T05:35:58;14.87;;;11.20;;
11338;SDS011;5724;42.684;23.252;2024-03-23T05:38:44;13.77;;;11.40;;
11338;SDS011;5724;42.684;23.252;2024-03-23T05:41:28;12.83;;;11.33;;
11338;SDS011;5724;42.684;23.252;2024-03-23T05:44:14;17.97;;;12.07;;
11338;SDS011;5724;42.684;23.252;2024-03-23T05:46:58;14.17;;;11.40;;
11338;SDS011;5724;42.684;23.252;2024-03-23T05:49:42;12.33;;;10.57;;
11338;SDS011;5724;42.684;23.252;2024-03-23T05:52:27;14.33;;;11.37;;
11338;SDS011;5724;42.684;23.252;2024-03-23T05:55:11;15.07;;;11.63;;
11338;SDS011;5724;42.684;23.252;2024-03-23T05:57:55;12.33;;;11.03;;
11338;SDS011;5724;42.684;23.252;2024-03-23T06:00:39;13.40;;;11.80;;
11338;SDS011;5724;42.684;23.252;2024-03-23T06:03:23;12.90;;;10.67;;
11338;SDS011;5724;42.684;23.252;2024-03-23T06:06:07;12.10;;;10.90;;
11338;SDS011;5724;42.684;23.252;2024-03-23T06:08:55;15.60;;;11.20;;
11338;SDS011;5724;42.684;23.252;2024-03-23T06:11:39;15.30;;;10.87;;
11338;SDS011;5724;42.684;23.252;2024-03-23T06:14:23;17.20;;;12.00;;
11338;SDS011;5724;42.684;23.252;2024-03-23T06:17:07;15.17;;;11.97;;
11338;SDS011;5724;42.684;23.252;2024-03-23T06:19:52;18.27;;;12.93;;
11338;SDS011;5724;42.684;23.252;2024-03-23T06:22:36;18.10;;;12.90;;
11338;SDS011;5724;42.684;23.252;2024-03-23T06:25:20;16.97;;;12.60;;
11338;SDS011;5724;42.684;23.252;2024-03-23T06:28:05;16.13;;;13.70;;
11338;SDS011;5724;42.684;23.252;2024-03-23T06:30:49;18.27;;;14.47;;
11338;SDS011;5724;42.684;23.252;2024-03-23T06:33:33;17.63;;;15.20;;
11338;SDS011;5724;42.684;23.252;2024-03-23T06:36:17;20.33;;;16.50;;
11338;SDS011;5724;42.684;23.252;2024-03-23T06:39:03;25.20;;;17.47;;
11338;SDS011;5724;42.684;23.252;2024-03-23T06:41:53;21.63;;;17.87;;
11338;SDS011;5724;42.684;23.252;2024-03-23T06:44:37;25.50;;;18.90;;
11338;SDS011;5724;42.684;23.252;2024-03-23T06:47:22;27.73;;;17.30;;
11338;SDS011;5724;42.684;23.252;2024-03-23T06:50:06;16.20;;;14.03;;
11338;SDS011;5724;42.684;23.252;2024-03-23T06:52:50;19.53;;;14.40;;
11338;SDS011;5724;42.684;23.252;2024-03-23T06:55:34;17.07;;;13.60;;
11338;SDS011;5724;42.684;23.252;2024-03-23T06:58:19;17.67;;;12.87;;
11338;SDS011;5724;42.684;23.252;2024-03-23T07:01:04;13.00;;;11.63;;
11338;SDS011;5724;42.684;23.252;2024-03-23T07:03:48;14.50;;;11.77;;
11338;SDS011;5724;42.684;23.252;2024-03-23T07:06:31;13.10;;;11.93;;
11338;SDS011;5724;42.684;23.252;2024-03-23T07:09:15;18.63;;;12.63;;
11338;SDS011;5724;42.684;23.252;2024-03-23T07:11:59;15.30;;;11.70;;
11338;SDS011;5724;42.684;23.252;2024-03-23T07:14:44;13.70;;;11.07;;
11338;SDS011;5724;42.684;23.252;2024-03-23T07:17:29;15.53;;;11.10;;
11338;SDS011;5724;42.684;23.252;2024-03-23T07:20:16;13.33;;;11.57;;
11338;SDS011;5724;42.684;23.252;2024-03-23T07:22:59;13.27;;;10.90;;
11338;SDS011;5724;42.684;23.252;2024-03-23T07:25:43;12.93;;;11.40;;
11338;SDS011;5724;42.684;23.252;2024-03-23T07:28:27;15.13;;;11.00;;
11338;SDS011;5724;42.684;23.252;2024-03-23T07:31:15;17.13;;;13.40;;
11338;SDS011;5724;42.684;23.252;2024-03-23T07:33:59;18.43;;;13.63;;
11338;SDS011;5724;42.684;23.252;2024-03-23T07:36:44;15.03;;;12.57;;
11338;SDS011;5724;42.684;23.252;2024-03-23T07:39:28;16.07;;;12.07;;
11338;SDS011;5724;42.684;23.252;2024-03-23T07:42:12;19.97;;;12.23;;
11338;SDS011;5724;42.684;23.252;2024-03-23T07:44:56;19.33;;;13.77;;
11338;SDS011;5724;42.684;23.252;2024-03-23T07:47:40;18.10;;;14.17;;
11338;SDS011;5724;42.684;23.252;2024-03-23T07:50:25;17.53;;;13.53;;
11338;SDS011;5724;42.684;23.252;2024-03-23T07:53:09;15.47;;;13.23;;
11338;SDS011;5724;42.684;23.252;2024-03-23T07:56:11;17.67;;;12.83;;
11338;SDS011;5724;42.684;23.252;2024-03-23T07:58:56;19.20;;;13.83;;
11338;SDS011;5724;42.684;23.252;2024-03-23T08:01:40;14.33;;;12.70;;
11338;SDS011;5724;42.684;23.252;2024-03-23T08:04:24;17.30;;;13.10;;
11338;SDS011;5724;42.684;23.252;2024-03-23T08:07:08;19.13;;;12.67;;
11338;SDS011;5724;42.684;23.252;2024-03-23T08:09:52;16.33;;;12.63;;
11338;SDS011;5724;42.684;23.252;2024-03-23T08:12:36;14.03;;;12.37;;
11338;SDS011;5724;42.684;23.252;2024-03-23T08:15:20;20.13;;;12.83;;
11338;SDS011;5724;42.684;23.252;2024-03-23T08:18:04;23.00;;;15.23;;
11338;SDS011;5724;42.684;23.252;2024-03-23T08:20:55;22.77;;;14.43;;
11338;SDS011;5724;42.684;23.252;2024-03-23T08:23:41;25.73;;;15.13;;
11338;SDS011;5724;42.684;23.252;2024-03-23T08:26:25;22.98;;;13.13;;
11338;SDS011;5724;42.684;23.252;2024-03-23T08:29:09;14.05;;;12.75;;
11338;SDS011;5724;42.684;23.252;2024-03-23T08:31:52;16.33;;;12.15;;
11338;SDS011;5724;42.684;23.252;2024-03-23T08:34:36;14.32;;;12.05;;
11338;SDS011;5724;42.684;23.252;2024-03-23T08:37:20;19.95;;;12.60;;
11338;SDS011;5724;42.684;23.252;2024-03-23T08:40:08;18.88;;;14.00;;
11338;SDS011;5724;42.684;23.252;2024-03-23T08:42:53;15.43;;;13.57;;
11338;SDS011;5724;42.684;23.252;2024-03-23T08:45:37;18.75;;;16.33;;
11338;SDS011;5724;42.684;23.252;2024-03-23T08:48:20;18.45;;;13.80;;
11338;SDS011;5724;42.684;23.252;2024-03-23T08:51:07;19.45;;;14.48;;
11338;SDS011;5724;42.684;23.252;2024-03-23T08:53:51;15.90;;;13.05;;
11338;SDS011;5724;42.684;23.252;2024-03-23T08:56:35;17.33;;;11.40;;
11338;SDS011;5724;42.684;23.252;2024-03-23T08:59:19;17.55;;;13.18;;
11338;SDS011;5724;42.684;23.252;2024-03-23T09:02:04;17.85;;;13.85;;
11338;SDS011;5724;42.684;23.252;2024-03-23T09:04:48;16.48;;;14.25;;
11338;SDS011;5724;42.684;23.252;2024-03-23T09:07:32;22.05;;;16.70;;
11338;SDS011;5724;42.684;23.252;2024-03-23T09:10:16;16.35;;;13.80;;
11338;SDS011;5724;42.684;23.252;2024-03-23T09:13:00;14.00;;;12.32;;
11338;SDS011;5724;42.684;23.252;2024-03-23T09:15:51;14.43;;;12.40;;
11338;SDS011;5724;42.684;23.252;2024-03-23T09:18:40;15.32;;;13.75;;
11338;SDS011;5724;42.684;23.252;2024-03-23T09:21:23;22.05;;;12.45;;
11338;SDS011;5724;42.684;23.252;2024-03-23T09:24:09;15.82;;;11.75;;
11338;SDS011;5724;42.684;23.252;2024-03-23T09:26:53;13.85;;;12.32;;
11338;SDS011;5724;42.684;23.252;2024-03-23T09:29:39;14.50;;;13.00;;
11338;SDS011;5724;42.684;23.252;2024-03-23T09:32:23;17.67;;;13.85;;
11338;SDS011;5724;42.684;23.252;2024-03-23T09:35:07;15.05;;;13.55;;
11338;SDS011;5724;42.684;23.252;2024-03-23T09:37:51;15.10;;;12.88;;
11338;SDS011;5724;42.684;23.252;2024-03-23T09:40:42;17.00;;;12.52;;
11338;SDS011;5724;42.684;23.252;2024-03-23T09:43:27;14.52;;;11.70;;
11338;SDS011;5724;42.684;23.252;2024-03-23T09:46:12;16.00;;;12.45;;
11338;SDS011;5724;42.684;23.252;2024-03-23T09:48:56;17.73;;;12.20;;
11338;SDS011;5724;42.684;23.252;2024-03-23T09:51:42;15.82;;;11.65;;
11338;SDS011;5724;42.684;23.252;2024-03-23T09:54:26;12.70;;;11.38;;
11338;SDS011;5724;42.684;23.252;2024-03-23T09:57:09;12.68;;;11.18;;
11338;SDS011;5724;42.684;23.252;2024-03-23T09:59:53;14.95;;;10.65;;
11338;SDS011;5724;42.684;23.252;2024-03-23T10:02:38;14.02;;;11.02;;
11338;SDS011;5724;42.684;23.252;2024-03-23T10:05:23;12.82;;;11.45;;
11338;SDS011;5724;42.684;23.252;2024-03-23T10:10:57;19.38;;;16.42;;
11338;SDS011;5724;42.684;23.252;2024-03-23T10:13:41;15.50;;;12.20;;
11338;SDS011;5724;42.684;23.252;2024-03-23T10:16:27;12.50;;;10.95;;
11338;SDS011;5724;42.684;23.252;2024-03-23T10:19:11;14.63;;;11.27;;
11338;SDS011;5724;42.684;23.252;2024-03-23T10:21:55;14.73;;;12.32;;
11338;SDS011;5724;42.684;23.252;2024-03-23T10:24:39;14.35;;;12.88;;
11338;SDS011;5724;42.684;23.252;2024-03-23T10:27:24;12.40;;;11.20;;
11338;SDS011;5724;42.684;23.252;2024-03-23T10:30:08;13.02;;;9.43;;
11338;SDS011;5724;42.684;23.252;2024-03-23T10:33:07;14.73;;;10.73;;
11338;SDS011;5724;42.684;23.252;2024-03-23T10:35:54;12.00;;;10.43;;
11338;SDS011;5724;42.684;23.252;2024-03-23T10:38:43;10.23;;;9.25;;
11338;SDS011;5724;42.684;23.252;2024-03-23T10:41:28;12.45;;;9.93;;
11338;SDS011;5724;42.684;23.252;2024-03-23T10:44:19;12.75;;;10.60;;
11338;SDS011;5724;42.684;23.252;2024-03-23T10:47:03;13.40;;;10.27;;
11338;SDS011;5724;42.684;23.252;2024-03-23T10:49:48;12.52;;;10.20;;
11338;SDS011;5724;42.684;23.252;2024-03-23T10:52:33;11.38;;;9.57;;
11338;SDS011;5724;42.684;23.252;2024-03-23T10:55:18;10.70;;;9.65;;
11338;SDS011;5724;42.684;23.252;2024-03-23T10:58:04;10.90;;;9.68;;
11338;SDS011;5724;42.684;23.252;2024-03-23T11:00:49;12.65;;;9.27;;
11338;SDS011;5724;42.684;23.252;2024-03-23T11:03:33;10.30;;;9.30;;
11338;SDS011;5724;42.684;23.252;2024-03-23T11:09:39;9.38;;;6.95;;
11338;SDS011;5724;42.684;23.252;2024-03-23T11:15:11;7.45;;;6.22;;
11338;SDS011;5724;42.684;23.252;2024-03-23T11:18:06;7.30;;;6.20;;
11338;SDS011;5724;42.684;23.252;2024-03-23T11:20:55;10.82;;;5.90;;
11338;SDS011;5724;42.684;23.252;2024-03-23T11:23:40;6.55;;;5.18;;
11338;SDS011;5724;42.684;23.252;2024-03-23T11:26:24;5.93;;;5.53;;
11338;SDS011;5724;42.684;23.252;2024-03-23T11:29:09;8.68;;;5.72;;
11338;SDS011;5724;42.684;23.252;2024-03-23T11:31:53;6.80;;;6.18;;
11338;SDS011;5724;42.684;23.252;2024-03-23T11:34:37;11.75;;;6.45;;
11338;SDS011;5724;42.684;23.252;2024-03-23T11:37:22;11.82;;;5.90;;
11338;SDS011;5724;42.684;23.252;2024-03-23T11:40:19;9.40;;;5.72;;
11338;SDS011;5724;42.684;23.252;2024-03-23T11:43:04;8.10;;;6.10;;
11338;SDS011;5724;42.684;23.252;2024-03-23T11:45:49;6.10;;;5.70;;
11338;SDS011;5724;42.684;23.252;2024-03-23T11:48:39;8.68;;;5.10;;
11338;SDS011;5724;42.684;23.252;2024-03-23T11:51:23;9.52;;;5.20;;
11338;SDS011;5724;42.684;23.252;2024-03-23T11:54:08;5.65;;;5.25;;
11338;SDS011;5724;42.684;23.252;2024-03-23T11:56:56;3.17;;;2.97;;
11338;SDS011;5724;42.684;23.252;2024-03-23T11:59:42;3.70;;;3.50;;
11338;SDS011;5724;42.684;23.252;2024-03-23T12:02:28;17.60;;;2.72;;
11338;SDS011;5724;42.684;23.252;2024-03-23T12:05:15;5.07;;;2.17;;
11338;SDS011;5724;42.684;23.252;2024-03-23T12:11:05;3.20;;;2.13;;
11338;SDS011;5724;42.684;23.252;2024-03-23T12:13:51;2.00;;;1.83;;
11338;SDS011;5724;42.684;23.252;2024-03-23T12:16:36;2.60;;;1.90;;
11338;SDS011;5724;42.684;23.252;2024-03-23T12:19:20;2.38;;;1.70;;
11338;SDS011;5724;42.684;23.252;2024-03-23T12:22:05;1.27;;;1.27;;
11338;SDS011;5724;42.684;23.252;2024-03-23T12:24:50;2.80;;;1.50;;
11338;SDS011;5724;42.684;23.252;2024-03-23T12:27:35;1.73;;;1.63;;
11338;SDS011;5724;42.684;23.252;2024-03-23T12:30:19;24.40;;;3.05;;
11338;SDS011;5724;42.684;23.252;2024-03-23T12:33:03;1.60;;;1.50;;
11338;SDS011;5724;42.684;23.252;2024-03-23T12:35:49;2.22;;;1.20;;
11338;SDS011;5724;42.684;23.252;2024-03-23T12:38:34;4.65;;;1.60;;
11338;SDS011;5724;42.684;23.252;2024-03-23T12:41:19;1.67;;;1.60;;
11338;SDS011;5724;42.684;23.252;2024-03-23T12:44:03;1.23;;;1.23;;
11338;SDS011;5724;42.684;23.252;2024-03-23T12:46:48;1.25;;;1.25;;
11338;SDS011;5724;42.684;23.252;2024-03-23T12:49:32;1.33;;;1.33;;
11338;SDS011;5724;42.684;23.252;2024-03-23T12:52:16;2.83;;;1.83;;
11338;SDS011;5724;42.684;23.252;2024-03-23T12:55:00;2.22;;;1.50;;
11338;SDS011;5724;42.684;23.252;2024-03-23T12:57:43;1.75;;;1.58;;
11338;SDS011;5724;42.684;23.252;2024-03-23T13:00:27;2.50;;;1.80;;
11338;SDS011;5724;42.684;23.252;2024-03-23T13:03:13;1.95;;;1.60;;
11338;SDS011;5724;42.684;23.252;2024-03-23T13:05:59;1.88;;;1.50;;
11338;SDS011;5724;42.684;23.252;2024-03-23T13:08:43;2.15;;;1.50;;
11338;SDS011;5724;42.684;23.252;2024-03-23T13:11:29;43.50;;;4.93;;
11338;SDS011;5724;42.684;23.252;2024-03-23T13:14:13;2.92;;;1.33;;
11338;SDS011;5724;42.684;23.252;2024-03-23T13:17:00;1.67;;;1.27;;
11338;SDS011;5724;42.684;23.252;2024-03-23T13:19:45;1.98;;;1.50;;
11338;SDS011;5724;42.684;23.252;2024-03-23T13:22:29;3.00;;;1.40;;
11338;SDS011;5724;42.684;23.252;2024-03-23T13:25:14;5.40;;;1.40;;
11338;SDS011;5724;42.684;23.252;2024-03-23T13:27:58;1.83;;;1.73;;
11338;SDS011;5724;42.684;23.252;2024-03-23T13:30:49;1.50;;;1.50;;
11338;SDS011;5724;42.684;23.252;2024-03-23T13:33:36;1.92;;;1.55;;
11338;SDS011;5724;42.684;23.252;2024-03-23T13:36:20;2.92;;;1.95;;
11338;SDS011;5724;42.684;23.252;2024-03-23T13:39:04;1.65;;;1.55;;
11338;SDS011;5724;42.684;23.252;2024-03-23T13:41:55;3.70;;;2.13;;
11338;SDS011;5724;42.684;23.252;2024-03-23T13:44:40;2.38;;;2.20;;
11338;SDS011;5724;42.684;23.252;2024-03-23T13:47:25;2.22;;;2.00;;
11338;SDS011;5724;42.684;23.252;2024-03-23T13:50:09;2.30;;;2.05;;
11338;SDS011;5724;42.684;23.252;2024-03-23T13:52:53;2.90;;;2.00;;
11338;SDS011;5724;42.684;23.252;2024-03-23T13:55:37;2.83;;;2.08;;
11338;SDS011;5724;42.684;23.252;2024-03-23T13:58:21;2.53;;;1.83;;
11338;SDS011;5724;42.684;23.252;2024-03-23T14:01:07;2.28;;;1.80;;
11338;SDS011;5724;42.684;23.252;2024-03-23T14:03:51;2.28;;;2.17;;
11338;SDS011;5724;42.684;23.252;2024-03-23T14:06:35;2.22;;;1.98;;
11338;SDS011;5724;42.684;23.252;2024-03-23T14:09:20;4.47;;;4.05;;
11338;SDS011;5724;42.684;23.252;2024-03-23T14:12:07;2.78;;;2.10;;
11338;SDS011;5724;42.684;23.252;2024-03-23T14:14:52;2.85;;;2.40;;
11338;SDS011;5724;42.684;23.252;2024-03-23T14:17:37;10.85;;;3.30;;
11338;SDS011;5724;42.684;23.252;2024-03-23T14:20:22;4.57;;;2.83;;
11338;SDS011;5724;42.684;23.252;2024-03-23T14:23:10;4.32;;;2.10;;
11338;SDS011;5724;42.684;23.252;2024-03-23T14:25:54;2.55;;;2.45;;
11338;SDS011;5724;42.684;23.252;2024-03-23T14:28:38;8.93;;;2.67;;
11338;SDS011;5724;42.684;23.252;2024-03-23T14:31:23;4.45;;;2.90;;
11338;SDS011;5724;42.684;23.252;2024-03-23T14:34:08;3.97;;;3.05;;
11338;SDS011;5724;42.684;23.252;2024-03-23T14:36:53;3.22;;;2.72;;
11338;SDS011;5724;42.684;23.252;2024-03-23T14:39:38;2.35;;;2.20;;
11338;SDS011;5724;42.684;23.252;2024-03-23T14:42:25;7.80;;;3.40;;
11338;SDS011;5724;42.684;23.252;2024-03-23T14:45:09;6.30;;;2.33;;
11338;SDS011;5724;42.684;23.252;2024-03-23T14:47:55;2.30;;;2.20;;
11338;SDS011;5724;42.684;23.252;2024-03-23T14:50:41;4.32;;;2.78;;
11338;SDS011;5724;42.684;23.252;2024-03-23T14:53:26;3.38;;;2.90;;
11338;SDS011;5724;42.684;23.252;2024-03-23T14:56:13;10.70;;;3.63;;
11338;SDS011;5724;42.684;23.252;2024-03-23T14:58:59;2.70;;;2.50;;
11338;SDS011;5724;42.684;23.252;2024-03-23T15:01:43;7.43;;;2.90;;
11338;SDS011;5724;42.684;23.252;2024-03-23T15:04:27;2.45;;;2.35;;
11338;SDS011;5724;42.684;23.252;2024-03-23T15:07:11;2.53;;;2.33;;
11338;SDS011;5724;42.684;23.252;2024-03-23T15:09:55;4.97;;;2.78;;
11338;SDS011;5724;42.684;23.252;2024-03-23T15:12:39;2.97;;;2.45;;
11338;SDS011;5724;42.684;23.252;2024-03-23T15:15:23;2.42;;;2.33;;
11338;SDS011;5724;42.684;23.252;2024-03-23T15:18:13;2.45;;;2.25;;
11338;SDS011;5724;42.684;23.252;2024-03-23T15:21:00;2.47;;;2.38;;
11338;SDS011;5724;42.684;23.252;2024-03-23T15:23:53;2.50;;;2.30;;
11338;SDS011;5724;42.684;23.252;2024-03-23T15:26:38;2.35;;;2.25;;
11338;SDS011;5724;42.684;23.252;2024-03-23T15:29:22;3.08;;;2.78;;
11338;SDS011;5724;42.684;23.252;2024-03-23T15:32:07;3.83;;;3.35;;
11338;SDS011;5724;42.684;23.252;2024-03-23T15:34:51;6.30;;;3.42;;
11338;SDS011;5724;42.684;23.252;2024-03-23T15:37:35;3.55;;;3.25;;
11338;SDS011;5724;42.684;23.252;2024-03-23T15:40:20;7.45;;;3.50;;
11338;SDS011;5724;42.684;23.252;2024-03-23T15:43:04;2.92;;;2.72;;
11338;SDS011;5724;42.684;23.252;2024-03-23T15:45:57;3.10;;;2.78;;
11338;SDS011;5724;42.684;23.252;2024-03-23T15:48:43;2.67;;;2.47;;
11338;SDS011;5724;42.684;23.252;2024-03-23T15:51:30;3.28;;;2.90;;
11338;SDS011;5724;42.684;23.252;2024-03-23T15:54:20;5.95;;;5.22;;
11338;SDS011;5724;42.684;23.252;2024-03-23T15:57:06;3.80;;;3.42;;
11338;SDS011;5724;42.684;23.252;2024-03-23T15:59:52;3.00;;;2.80;;
11338;SDS011;5724;42.684;23.252;2024-03-23T16:02:36;3.17;;;2.97;;
11338;SDS011;5724;42.684;23.252;2024-03-23T16:05:20;5.53;;;3.00;;
11338;SDS011;5724;42.684;23.252;2024-03-23T16:08:04;5.47;;;3.67;;
11338;SDS011;5724;42.684;23.252;2024-03-23T16:10:49;3.38;;;3.10;;
11338;SDS011;5724;42.684;23.252;2024-03-23T16:13:35;3.63;;;3.33;;
11338;SDS011;5724;42.684;23.252;2024-03-23T16:16:20;4.40;;;3.20;;
11338;SDS011;5724;42.684;23.252;2024-03-23T16:19:06;3.17;;;2.90;;
11338;SDS011;5724;42.684;23.252;2024-03-23T16:21:50;3.10;;;2.90;;
11338;SDS011;5724;42.684;23.252;2024-03-23T16:24:34;3.38;;;3.03;;
11338;SDS011;5724;42.684;23.252;2024-03-23T16:27:18;6.32;;;4.95;;
11338;SDS011;5724;42.684;23.252;2024-03-23T16:30:02;9.57;;;6.28;;
11338;SDS011;5724;42.684;23.252;2024-03-23T16:32:47;10.30;;;3.53;;
11338;SDS011;5724;42.684;23.252;2024-03-23T16:35:31;5.38;;;4.88;;
11338;SDS011;5724;42.684;23.252;2024-03-23T16:38:16;5.35;;;4.80;;
11338;SDS011;5724;42.684;23.252;2024-03-23T16:41:01;4.82;;;3.15;;
11338;SDS011;5724;42.684;23.252;2024-03-23T16:43:49;4.68;;;4.28;;
11338;SDS011;5724;42.684;23.252;2024-03-23T16:46:34;3.40;;;3.20;;
11338;SDS011;5724;42.684;23.252;2024-03-23T16:49:18;3.63;;;3.35;;
11338;SDS011;5724;42.684;23.252;2024-03-23T16:52:03;3.70;;;3.25;;
11338;SDS011;5724;42.684;23.252;2024-03-23T16:54:48;5.32;;;3.33;;
11338;SDS011;5724;42.684;23.252;2024-03-23T16:57:33;3.17;;;2.97;;
11338;SDS011;5724;42.684;23.252;2024-03-23T17:00:17;3.88;;;3.20;;
11338;SDS011;5724;42.684;23.252;2024-03-23T17:03:02;3.53;;;3.33;;
11338;SDS011;5724;42.684;23.252;2024-03-23T17:05:49;3.35;;;3.05;;
11338;SDS011;5724;42.684;23.252;2024-03-23T17:08:37;3.30;;;3.10;;
11338;SDS011;5724;42.684;23.252;2024-03-23T17:11:22;3.33;;;3.08;;
11338;SDS011;5724;42.684;23.252;2024-03-23T17:14:06;5.25;;;3.35;;
11338;SDS011;5724;42.684;23.252;2024-03-23T17:16:51;3.50;;;3.20;;
11338;SDS011;5724;42.684;23.252;2024-03-23T17:19:35;4.07;;;3.70;;